sensor_id;sensor_type;location;lat;lon;timestamp;P1;durP1;ratioP1;P2;durP2;ratioP2
42602;SDS011;28233;55.748;48.752;2023-06-22T00:00:35;2.60;;;1.52;;
42602;SDS011;28233;55.748;48.752;2023-06-22T00:02:37;2.58;;;1.30;;
42602;SDS011;28233;55.748;48.752;2023-06-22T00:04:40;2.70;;;1.23;;
42602;SDS011;28233;55.748;48.752;2023-06-22T00:06:43;2.20;;;1.08;;
42602;SDS011;28233;55.748;48.752;2023-06-22T00:08:46;4.68;;;1.80;;
42602;SDS011;28233;55.748;48.752;2023-06-22T00:10:49;12.50;;;2.88;;
42602;SDS011;28233;55.748;48.752;2023-06-22T00:12:52;2.30;;;1.77;;
42602;SDS011;28233;55.748;48.752;2023-06-22T00:14:55;3.58;;;1.30;;
42602;SDS011;28233;55.748;48.752;2023-06-22T00:16:57;2.85;;;1.58;;
42602;SDS011;28233;55.748;48.752;2023-06-22T00:19:01;6.75;;;1.45;;
42602;SDS011;28233;55.748;48.752;2023-06-22T00:21:04;3.35;;;1.20;;
42602;SDS011;28233;55.748;48.752;2023-06-22T00:23:08;5.35;;;1.08;;
42602;SDS011;28233;55.748;48.752;2023-06-22T00:25:11;6.50;;;1.25;;
42602;SDS011;28233;55.748;48.752;2023-06-22T00:27:14;3.42;;;1.70;;
42602;SDS011;28233;55.748;48.752;2023-06-22T00:29:17;6.20;;;1.60;;
42602;SDS011;28233;55.748;48.752;2023-06-22T00:31:20;4.38;;;1.58;;
42602;SDS011;28233;55.748;48.752;2023-06-22T00:33:23;3.35;;;1.83;;
42602;SDS011;28233;55.748;48.752;2023-06-22T00:35:26;3.60;;;1.60;;
42602;SDS011;28233;55.748;48.752;2023-06-22T00:37:32;3.38;;;1.48;;
42602;SDS011;28233;55.748;48.752;2023-06-22T00:39:34;3.30;;;1.55;;
42602;SDS011;28233;55.748;48.752;2023-06-22T00:41:37;2.95;;;1.38;;
42602;SDS011;28233;55.748;48.752;2023-06-22T00:43:40;4.30;;;1.42;;
42602;SDS011;28233;55.748;48.752;2023-06-22T00:45:44;3.55;;;1.40;;
42602;SDS011;28233;55.748;48.752;2023-06-22T00:47:47;3.25;;;1.05;;
42602;SDS011;28233;55.748;48.752;2023-06-22T00:49:50;4.03;;;1.08;;
42602;SDS011;28233;55.748;48.752;2023-06-22T00:51:53;2.17;;;1.27;;
42602;SDS011;28233;55.748;48.752;2023-06-22T00:53:56;4.18;;;1.27;;
42602;SDS011;28233;55.748;48.752;2023-06-22T00:56:00;2.65;;;1.23;;
42602;SDS011;28233;55.748;48.752;2023-06-22T00:58:08;3.80;;;1.42;;
42602;SDS011;28233;55.748;48.752;2023-06-22T01:00:13;2.20;;;1.48;;
42602;SDS011;28233;55.748;48.752;2023-06-22T01:02:22;2.65;;;1.25;;
42602;SDS011;28233;55.748;48.752;2023-06-22T01:04:33;3.38;;;1.30;;
42602;SDS011;28233;55.748;48.752;2023-06-22T01:06:38;3.67;;;1.58;;
42602;SDS011;28233;55.748;48.752;2023-06-22T01:08:56;3.00;;;1.67;;
42602;SDS011;28233;55.748;48.752;2023-06-22T01:11:28;4.38;;;1.30;;
42602;SDS011;28233;55.748;48.752;2023-06-22T01:16:03;4.40;;;1.40;;
42602;SDS011;28233;55.748;48.752;2023-06-22T01:18:16;3.72;;;1.23;;
42602;SDS011;28233;55.748;48.752;2023-06-22T01:20:20;5.25;;;1.40;;
42602;SDS011;28233;55.748;48.752;2023-06-22T01:22:27;3.53;;;1.30;;
42602;SDS011;28233;55.748;48.752;2023-06-22T01:24:41;3.38;;;1.40;;
42602;SDS011;28233;55.748;48.752;2023-06-22T01:29:12;2.85;;;1.63;;
42602;SDS011;28233;55.748;48.752;2023-06-22T01:31:17;3.13;;;1.58;;
42602;SDS011;28233;55.748;48.752;2023-06-22T01:33:22;4.38;;;1.65;;
42602;SDS011;28233;55.748;48.752;2023-06-22T01:35:25;2.00;;;1.42;;
42602;SDS011;28233;55.748;48.752;2023-06-22T01:37:29;2.63;;;1.38;;
42602;SDS011;28233;55.748;48.752;2023-06-22T01:39:34;3.15;;;1.60;;
42602;SDS011;28233;55.748;48.752;2023-06-22T01:41:38;2.47;;;1.15;;
42602;SDS011;28233;55.748;48.752;2023-06-22T01:43:44;3.00;;;1.75;;
42602;SDS011;28233;55.748;48.752;2023-06-22T01:45:48;3.38;;;2.10;;
42602;SDS011;28233;55.748;48.752;2023-06-22T01:47:52;2.55;;;1.38;;
42602;SDS011;28233;55.748;48.752;2023-06-22T01:49:56;3.80;;;1.35;;
42602;SDS011;28233;55.748;48.752;2023-06-22T01:51:59;2.15;;;1.35;;
42602;SDS011;28233;55.748;48.752;2023-06-22T01:54:02;2.97;;;1.88;;
42602;SDS011;28233;55.748;48.752;2023-06-22T01:56:05;4.13;;;1.60;;
42602;SDS011;28233;55.748;48.752;2023-06-22T01:58:08;2.05;;;1.05;;
42602;SDS011;28233;55.748;48.752;2023-06-22T02:00:15;3.35;;;1.35;;
42602;SDS011;28233;55.748;48.752;2023-06-22T02:02:25;2.28;;;1.63;;
42602;SDS011;28233;55.748;48.752;2023-06-22T02:04:42;4.40;;;2.15;;
42602;SDS011;28233;55.748;48.752;2023-06-22T02:06:53;3.08;;;1.85;;
42602;SDS011;28233;55.748;48.752;2023-06-22T02:08:59;2.55;;;1.35;;
42602;SDS011;28233;55.748;48.752;2023-06-22T02:11:05;3.25;;;1.30;;
42602;SDS011;28233;55.748;48.752;2023-06-22T02:13:10;5.43;;;1.48;;
42602;SDS011;28233;55.748;48.752;2023-06-22T02:15:15;3.58;;;1.25;;
42602;SDS011;28233;55.748;48.752;2023-06-22T02:17:18;3.78;;;1.52;;
42602;SDS011;28233;55.748;48.752;2023-06-22T02:19:24;2.78;;;1.25;;
42602;SDS011;28233;55.748;48.752;2023-06-22T02:21:28;2.08;;;1.38;;
42602;SDS011;28233;55.748;48.752;2023-06-22T02:23:31;2.30;;;1.30;;
42602;SDS011;28233;55.748;48.752;2023-06-22T02:25:37;3.55;;;1.50;;
42602;SDS011;28233;55.748;48.752;2023-06-22T02:27:39;2.70;;;1.00;;
42602;SDS011;28233;55.748;48.752;2023-06-22T02:29:43;2.78;;;1.30;;
42602;SDS011;28233;55.748;48.752;2023-06-22T02:31:45;5.03;;;1.35;;
42602;SDS011;28233;55.748;48.752;2023-06-22T02:33:48;3.22;;;1.73;;
42602;SDS011;28233;55.748;48.752;2023-06-22T02:35:52;3.70;;;2.00;;
42602;SDS011;28233;55.748;48.752;2023-06-22T02:37:55;2.28;;;1.05;;
42602;SDS011;28233;55.748;48.752;2023-06-22T02:39:58;4.18;;;1.33;;
42602;SDS011;28233;55.748;48.752;2023-06-22T02:42:01;3.42;;;1.75;;
42602;SDS011;28233;55.748;48.752;2023-06-22T02:44:04;5.25;;;1.77;;
42602;SDS011;28233;55.748;48.752;2023-06-22T02:46:06;2.03;;;1.27;;
42602;SDS011;28233;55.748;48.752;2023-06-22T02:48:09;4.25;;;1.80;;
42602;SDS011;28233;55.748;48.752;2023-06-22T02:50:12;3.00;;;1.33;;
42602;SDS011;28233;55.748;48.752;2023-06-22T02:52:16;2.17;;;1.35;;
42602;SDS011;28233;55.748;48.752;2023-06-22T02:54:18;2.50;;;1.40;;
42602;SDS011;28233;55.748;48.752;2023-06-22T02:56:22;2.10;;;1.20;;
42602;SDS011;28233;55.748;48.752;2023-06-22T02:58:27;3.55;;;1.15;;
42602;SDS011;28233;55.748;48.752;2023-06-22T03:00:30;2.92;;;1.30;;
42602;SDS011;28233;55.748;48.752;2023-06-22T03:02:33;3.17;;;1.35;;
42602;SDS011;28233;55.748;48.752;2023-06-22T03:04:36;3.15;;;1.73;;
42602;SDS011;28233;55.748;48.752;2023-06-22T03:06:39;3.08;;;1.60;;
42602;SDS011;28233;55.748;48.752;2023-06-22T03:08:43;2.83;;;1.65;;
42602;SDS011;28233;55.748;48.752;2023-06-22T03:10:45;3.00;;;1.42;;
42602;SDS011;28233;55.748;48.752;2023-06-22T03:12:48;3.22;;;1.60;;
42602;SDS011;28233;55.748;48.752;2023-06-22T03:14:51;2.97;;;1.33;;
42602;SDS011;28233;55.748;48.752;2023-06-22T03:16:54;4.95;;;2.05;;
42602;SDS011;28233;55.748;48.752;2023-06-22T03:18:57;3.35;;;1.98;;
42602;SDS011;28233;55.748;48.752;2023-06-22T03:21:00;2.67;;;1.40;;
42602;SDS011;28233;55.748;48.752;2023-06-22T03:23:04;4.03;;;1.63;;
42602;SDS011;28233;55.748;48.752;2023-06-22T03:25:08;5.10;;;1.90;;
42602;SDS011;28233;55.748;48.752;2023-06-22T03:27:16;3.92;;;1.85;;
42602;SDS011;28233;55.748;48.752;2023-06-22T03:29:18;3.05;;;2.08;;
42602;SDS011;28233;55.748;48.752;2023-06-22T03:31:22;2.65;;;1.67;;
42602;SDS011;28233;55.748;48.752;2023-06-22T03:33:25;1.98;;;1.50;;
42602;SDS011;28233;55.748;48.752;2023-06-22T03:35:28;2.70;;;1.58;;
42602;SDS011;28233;55.748;48.752;2023-06-22T03:37:31;4.07;;;1.40;;
42602;SDS011;28233;55.748;48.752;2023-06-22T03:39:34;2.95;;;1.45;;
42602;SDS011;28233;55.748;48.752;2023-06-22T03:41:37;3.95;;;1.42;;
42602;SDS011;28233;55.748;48.752;2023-06-22T03:43:40;3.75;;;2.15;;
42602;SDS011;28233;55.748;48.752;2023-06-22T03:45:43;3.17;;;1.80;;
42602;SDS011;28233;55.748;48.752;2023-06-22T03:47:47;4.35;;;1.67;;
42602;SDS011;28233;55.748;48.752;2023-06-22T03:49:50;2.85;;;1.75;;
42602;SDS011;28233;55.748;48.752;2023-06-22T03:51:57;5.30;;;2.13;;
42602;SDS011;28233;55.748;48.752;2023-06-22T03:54:00;2.22;;;1.52;;
42602;SDS011;28233;55.748;48.752;2023-06-22T03:56:03;3.67;;;1.95;;
42602;SDS011;28233;55.748;48.752;2023-06-22T03:58:06;3.08;;;1.77;;
42602;SDS011;28233;55.748;48.752;2023-06-22T04:00:09;3.45;;;2.08;;
42602;SDS011;28233;55.748;48.752;2023-06-22T04:02:12;3.78;;;1.80;;
42602;SDS011;28233;55.748;48.752;2023-06-22T04:04:16;12.48;;;2.35;;
42602;SDS011;28233;55.748;48.752;2023-06-22T04:06:20;5.93;;;2.58;;
42602;SDS011;28233;55.748;48.752;2023-06-22T04:08:24;3.70;;;1.98;;
42602;SDS011;28233;55.748;48.752;2023-06-22T04:10:27;4.13;;;2.20;;
42602;SDS011;28233;55.748;48.752;2023-06-22T04:12:30;3.53;;;1.90;;
42602;SDS011;28233;55.748;48.752;2023-06-22T04:14:33;4.97;;;2.08;;
42602;SDS011;28233;55.748;48.752;2023-06-22T04:16:36;6.22;;;2.08;;
42602;SDS011;28233;55.748;48.752;2023-06-22T04:18:39;3.88;;;2.03;;
42602;SDS011;28233;55.748;48.752;2023-06-22T04:20:42;2.95;;;1.98;;
42602;SDS011;28233;55.748;48.752;2023-06-22T04:22:49;3.20;;;1.80;;
42602;SDS011;28233;55.748;48.752;2023-06-22T04:24:52;3.78;;;2.10;;
42602;SDS011;28233;55.748;48.752;2023-06-22T04:26:55;4.78;;;2.08;;
42602;SDS011;28233;55.748;48.752;2023-06-22T04:28:58;2.53;;;1.30;;
42602;SDS011;28233;55.748;48.752;2023-06-22T04:31:01;4.95;;;2.22;;
42602;SDS011;28233;55.748;48.752;2023-06-22T04:33:05;5.22;;;1.88;;
42602;SDS011;28233;55.748;48.752;2023-06-22T04:35:08;2.00;;;1.23;;
42602;SDS011;28233;55.748;48.752;2023-06-22T04:37:11;3.28;;;1.70;;
42602;SDS011;28233;55.748;48.752;2023-06-22T04:39:18;4.18;;;1.30;;
42602;SDS011;28233;55.748;48.752;2023-06-22T04:41:21;3.03;;;1.88;;
42602;SDS011;28233;55.748;48.752;2023-06-22T04:43:26;2.78;;;1.67;;
42602;SDS011;28233;55.748;48.752;2023-06-22T04:45:32;4.28;;;1.75;;
42602;SDS011;28233;55.748;48.752;2023-06-22T04:47:35;4.35;;;1.35;;
42602;SDS011;28233;55.748;48.752;2023-06-22T04:49:41;2.08;;;1.27;;
42602;SDS011;28233;55.748;48.752;2023-06-22T04:51:46;3.80;;;1.60;;
42602;SDS011;28233;55.748;48.752;2023-06-22T04:53:49;2.47;;;1.20;;
42602;SDS011;28233;55.748;48.752;2023-06-22T04:55:51;4.05;;;1.77;;
42602;SDS011;28233;55.748;48.752;2023-06-22T04:57:55;2.80;;;1.20;;
42602;SDS011;28233;55.748;48.752;2023-06-22T04:59:58;2.70;;;1.52;;
42602;SDS011;28233;55.748;48.752;2023-06-22T05:02:15;2.90;;;1.80;;
42602;SDS011;28233;55.748;48.752;2023-06-22T05:04:18;3.08;;;1.52;;
42602;SDS011;28233;55.748;48.752;2023-06-22T05:06:21;6.70;;;1.90;;
42602;SDS011;28233;55.748;48.752;2023-06-22T05:08:27;2.92;;;1.33;;
42602;SDS011;28233;55.748;48.752;2023-06-22T05:10:33;3.03;;;1.65;;
42602;SDS011;28233;55.748;48.752;2023-06-22T05:12:36;3.75;;;2.00;;
42602;SDS011;28233;55.748;48.752;2023-06-22T05:14:39;3.35;;;1.50;;
42602;SDS011;28233;55.748;48.752;2023-06-22T05:16:42;3.10;;;1.52;;
42602;SDS011;28233;55.748;48.752;2023-06-22T05:18:46;4.00;;;1.73;;
42602;SDS011;28233;55.748;48.752;2023-06-22T05:20:49;3.65;;;1.92;;
42602;SDS011;28233;55.748;48.752;2023-06-22T05:22:51;5.47;;;1.75;;
42602;SDS011;28233;55.748;48.752;2023-06-22T05:24:54;3.58;;;1.80;;
42602;SDS011;28233;55.748;48.752;2023-06-22T05:26:58;3.88;;;1.52;;
42602;SDS011;28233;55.748;48.752;2023-06-22T05:29:01;5.15;;;2.53;;
42602;SDS011;28233;55.748;48.752;2023-06-22T05:31:05;6.10;;;2.00;;
42602;SDS011;28233;55.748;48.752;2023-06-22T05:33:08;6.28;;;2.50;;
42602;SDS011;28233;55.748;48.752;2023-06-22T05:35:10;5.03;;;2.25;;
42602;SDS011;28233;55.748;48.752;2023-06-22T05:37:14;7.68;;;2.38;;
42602;SDS011;28233;55.748;48.752;2023-06-22T05:39:16;3.92;;;1.77;;
42602;SDS011;28233;55.748;48.752;2023-06-22T05:41:19;5.38;;;2.08;;
42602;SDS011;28233;55.748;48.752;2023-06-22T05:43:22;2.28;;;1.30;;
42602;SDS011;28233;55.748;48.752;2023-06-22T05:45:25;10.75;;;1.83;;
42602;SDS011;28233;55.748;48.752;2023-06-22T05:47:28;5.57;;;1.73;;
42602;SDS011;28233;55.748;48.752;2023-06-22T05:49:31;2.47;;;1.30;;
42602;SDS011;28233;55.748;48.752;2023-06-22T05:51:35;3.10;;;1.77;;
42602;SDS011;28233;55.748;48.752;2023-06-22T05:53:38;4.85;;;1.80;;
42602;SDS011;28233;55.748;48.752;2023-06-22T05:55:40;1.95;;;1.30;;
42602;SDS011;28233;55.748;48.752;2023-06-22T05:57:44;2.15;;;1.20;;
42602;SDS011;28233;55.748;48.752;2023-06-22T05:59:47;2.03;;;1.50;;
42602;SDS011;28233;55.748;48.752;2023-06-22T06:01:50;2.22;;;1.42;;
42602;SDS011;28233;55.748;48.752;2023-06-22T06:03:54;2.00;;;1.20;;
42602;SDS011;28233;55.748;48.752;2023-06-22T06:05:57;2.78;;;1.88;;
42602;SDS011;28233;55.748;48.752;2023-06-22T06:08:00;2.40;;;1.27;;
42602;SDS011;28233;55.748;48.752;2023-06-22T06:10:04;5.07;;;1.50;;
42602;SDS011;28233;55.748;48.752;2023-06-22T06:12:08;4.85;;;1.75;;
42602;SDS011;28233;55.748;48.752;2023-06-22T06:14:11;4.03;;;2.17;;
42602;SDS011;28233;55.748;48.752;2023-06-22T06:16:14;3.58;;;1.48;;
42602;SDS011;28233;55.748;48.752;2023-06-22T06:18:17;2.05;;;1.40;;
42602;SDS011;28233;55.748;48.752;2023-06-22T06:20:25;4.35;;;2.13;;
42602;SDS011;28233;55.748;48.752;2023-06-22T06:22:30;5.13;;;1.67;;
42602;SDS011;28233;55.748;48.752;2023-06-22T06:24:33;2.53;;;1.77;;
42602;SDS011;28233;55.748;48.752;2023-06-22T06:26:36;3.50;;;1.90;;
42602;SDS011;28233;55.748;48.752;2023-06-22T06:28:39;2.90;;;1.75;;
42602;SDS011;28233;55.748;48.752;2023-06-22T06:30:43;5.18;;;2.20;;
42602;SDS011;28233;55.748;48.752;2023-06-22T06:32:46;6.68;;;2.92;;
42602;SDS011;28233;55.748;48.752;2023-06-22T06:34:49;3.70;;;2.40;;
42602;SDS011;28233;55.748;48.752;2023-06-22T06:36:52;4.68;;;2.33;;
42602;SDS011;28233;55.748;48.752;2023-06-22T06:38:55;5.00;;;2.45;;
42602;SDS011;28233;55.748;48.752;2023-06-22T06:40:58;4.63;;;1.90;;
42602;SDS011;28233;55.748;48.752;2023-06-22T06:43:01;3.40;;;1.60;;
42602;SDS011;28233;55.748;48.752;2023-06-22T06:45:04;4.88;;;2.40;;
42602;SDS011;28233;55.748;48.752;2023-06-22T06:47:09;5.38;;;2.35;;
42602;SDS011;28233;55.748;48.752;2023-06-22T06:49:12;6.85;;;3.92;;
42602;SDS011;28233;55.748;48.752;2023-06-22T06:51:15;4.13;;;2.58;;
42602;SDS011;28233;55.748;48.752;2023-06-22T06:53:18;4.68;;;2.70;;
42602;SDS011;28233;55.748;48.752;2023-06-22T06:55:21;6.40;;;2.50;;
42602;SDS011;28233;55.748;48.752;2023-06-22T06:57:27;4.55;;;2.88;;
42602;SDS011;28233;55.748;48.752;2023-06-22T06:59:31;7.00;;;2.83;;
42602;SDS011;28233;55.748;48.752;2023-06-22T07:01:33;4.50;;;2.05;;
42602;SDS011;28233;55.748;48.752;2023-06-22T07:03:38;5.38;;;2.72;;
42602;SDS011;28233;55.748;48.752;2023-06-22T07:05:41;3.13;;;2.45;;
42602;SDS011;28233;55.748;48.752;2023-06-22T07:07:44;10.98;;;3.50;;
42602;SDS011;28233;55.748;48.752;2023-06-22T07:09:48;2.72;;;2.22;;
42602;SDS011;28233;55.748;48.752;2023-06-22T07:11:50;3.95;;;2.70;;
42602;SDS011;28233;55.748;48.752;2023-06-22T07:13:53;3.40;;;2.72;;
42602;SDS011;28233;55.748;48.752;2023-06-22T07:15:56;4.80;;;2.88;;
42602;SDS011;28233;55.748;48.752;2023-06-22T07:17:59;5.28;;;2.42;;
42602;SDS011;28233;55.748;48.752;2023-06-22T07:20:02;4.28;;;3.20;;
42602;SDS011;28233;55.748;48.752;2023-06-22T07:22:11;4.13;;;2.72;;
42602;SDS011;28233;55.748;48.752;2023-06-22T07:24:15;5.10;;;2.63;;
42602;SDS011;28233;55.748;48.752;2023-06-22T07:26:18;5.03;;;2.75;;
42602;SDS011;28233;55.748;48.752;2023-06-22T07:28:21;3.42;;;2.75;;
42602;SDS011;28233;55.748;48.752;2023-06-22T07:30:24;3.90;;;2.72;;
42602;SDS011;28233;55.748;48.752;2023-06-22T07:32:27;3.60;;;2.85;;
42602;SDS011;28233;55.748;48.752;2023-06-22T07:34:31;5.75;;;2.97;;
42602;SDS011;28233;55.748;48.752;2023-06-22T07:36:33;3.58;;;2.47;;
42602;SDS011;28233;55.748;48.752;2023-06-22T07:38:38;4.28;;;3.00;;
42602;SDS011;28233;55.748;48.752;2023-06-22T07:40:41;3.85;;;2.55;;
42602;SDS011;28233;55.748;48.752;2023-06-22T07:42:44;3.92;;;2.55;;
42602;SDS011;28233;55.748;48.752;2023-06-22T07:44:47;2.90;;;2.15;;
42602;SDS011;28233;55.748;48.752;2023-06-22T07:46:49;5.97;;;2.92;;
42602;SDS011;28233;55.748;48.752;2023-06-22T07:48:52;6.63;;;2.92;;
42602;SDS011;28233;55.748;48.752;2023-06-22T07:50:57;10.73;;;4.13;;
42602;SDS011;28233;55.748;48.752;2023-06-22T07:53:00;6.30;;;4.00;;
42602;SDS011;28233;55.748;48.752;2023-06-22T07:55:03;8.02;;;4.18;;
42602;SDS011;28233;55.748;48.752;2023-06-22T07:57:06;9.23;;;4.03;;
42602;SDS011;28233;55.748;48.752;2023-06-22T07:59:09;9.18;;;4.25;;
42602;SDS011;28233;55.748;48.752;2023-06-22T08:01:13;6.85;;;4.10;;
42602;SDS011;28233;55.748;48.752;2023-06-22T08:03:17;6.07;;;3.45;;
42602;SDS011;28233;55.748;48.752;2023-06-22T08:05:20;5.45;;;3.55;;
42602;SDS011;28233;55.748;48.752;2023-06-22T08:07:24;5.32;;;3.58;;
42602;SDS011;28233;55.748;48.752;2023-06-22T08:09:30;5.03;;;3.03;;
42602;SDS011;28233;55.748;48.752;2023-06-22T08:11:34;5.00;;;3.67;;
42602;SDS011;28233;55.748;48.752;2023-06-22T08:13:37;6.88;;;4.07;;
42602;SDS011;28233;55.748;48.752;2023-06-22T08:15:40;3.63;;;2.90;;
42602;SDS011;28233;55.748;48.752;2023-06-22T08:17:43;6.80;;;3.97;;
42602;SDS011;28233;55.748;48.752;2023-06-22T08:19:47;5.53;;;3.63;;
42602;SDS011;28233;55.748;48.752;2023-06-22T08:21:50;3.88;;;2.95;;
42602;SDS011;28233;55.748;48.752;2023-06-22T08:23:53;4.22;;;2.50;;
42602;SDS011;28233;55.748;48.752;2023-06-22T08:25:55;4.65;;;3.20;;
42602;SDS011;28233;55.748;48.752;2023-06-22T08:27:58;7.30;;;4.03;;
42602;SDS011;28233;55.748;48.752;2023-06-22T08:30:02;6.15;;;3.50;;
42602;SDS011;28233;55.748;48.752;2023-06-22T08:32:08;5.75;;;3.83;;
42602;SDS011;28233;55.748;48.752;2023-06-22T08:34:12;3.72;;;2.85;;
42602;SDS011;28233;55.748;48.752;2023-06-22T08:36:18;7.45;;;4.20;;
42602;SDS011;28233;55.748;48.752;2023-06-22T08:38:21;4.45;;;3.67;;
42602;SDS011;28233;55.748;48.752;2023-06-22T08:40:24;4.43;;;3.13;;
42602;SDS011;28233;55.748;48.752;2023-06-22T08:42:27;5.10;;;3.30;;
42602;SDS011;28233;55.748;48.752;2023-06-22T08:44:30;4.40;;;2.92;;
42602;SDS011;28233;55.748;48.752;2023-06-22T08:46:33;4.25;;;2.40;;
42602;SDS011;28233;55.748;48.752;2023-06-22T08:48:36;5.32;;;2.83;;
42602;SDS011;28233;55.748;48.752;2023-06-22T08:50:38;3.90;;;2.80;;
42602;SDS011;28233;55.748;48.752;2023-06-22T08:52:42;5.68;;;2.80;;
42602;SDS011;28233;55.748;48.752;2023-06-22T08:54:46;3.38;;;2.30;;
42602;SDS011;28233;55.748;48.752;2023-06-22T08:56:49;4.03;;;2.97;;
42602;SDS011;28233;55.748;48.752;2023-06-22T08:58:52;3.92;;;2.67;;
42602;SDS011;28233;55.748;48.752;2023-06-22T09:00:57;5.70;;;3.08;;
42602;SDS011;28233;55.748;48.752;2023-06-22T09:03:03;4.25;;;3.13;;
42602;SDS011;28233;55.748;48.752;2023-06-22T09:05:07;4.72;;;3.40;;
42602;SDS011;28233;55.748;48.752;2023-06-22T09:07:10;4.47;;;3.30;;
42602;SDS011;28233;55.748;48.752;2023-06-22T09:09:14;6.40;;;3.00;;
42602;SDS011;28233;55.748;48.752;2023-06-22T09:11:18;3.80;;;2.65;;
42602;SDS011;28233;55.748;48.752;2023-06-22T09:13:20;3.85;;;2.72;;
42602;SDS011;28233;55.748;48.752;2023-06-22T09:15:24;4.97;;;3.30;;
42602;SDS011;28233;55.748;48.752;2023-06-22T09:17:27;5.32;;;2.80;;
42602;SDS011;28233;55.748;48.752;2023-06-22T09:19:30;5.22;;;3.70;;
42602;SDS011;28233;55.748;48.752;2023-06-22T09:21:33;4.32;;;3.13;;
42602;SDS011;28233;55.748;48.752;2023-06-22T09:23:36;4.45;;;3.58;;
42602;SDS011;28233;55.748;48.752;2023-06-22T09:25:39;4.97;;;3.53;;
42602;SDS011;28233;55.748;48.752;2023-06-22T09:27:42;4.70;;;3.75;;
42602;SDS011;28233;55.748;48.752;2023-06-22T09:29:45;3.63;;;3.05;;
42602;SDS011;28233;55.748;48.752;2023-06-22T09:31:48;10.07;;;3.92;;
42602;SDS011;28233;55.748;48.752;2023-06-22T09:33:52;4.60;;;3.20;;
42602;SDS011;28233;55.748;48.752;2023-06-22T09:35:59;4.88;;;3.58;;
42602;SDS011;28233;55.748;48.752;2023-06-22T09:38:01;4.75;;;2.97;;
42602;SDS011;28233;55.748;48.752;2023-06-22T09:40:05;5.32;;;3.53;;
42602;SDS011;28233;55.748;48.752;2023-06-22T09:42:12;6.25;;;3.45;;
42602;SDS011;28233;55.748;48.752;2023-06-22T09:44:15;5.55;;;3.80;;
42602;SDS011;28233;55.748;48.752;2023-06-22T09:46:18;4.78;;;3.47;;
42602;SDS011;28233;55.748;48.752;2023-06-22T09:48:23;6.70;;;3.78;;
42602;SDS011;28233;55.748;48.752;2023-06-22T09:50:26;3.58;;;2.13;;
42602;SDS011;28233;55.748;48.752;2023-06-22T09:52:30;3.78;;;2.38;;
42602;SDS011;28233;55.748;48.752;2023-06-22T09:54:48;4.55;;;3.30;;
42602;SDS011;28233;55.748;48.752;2023-06-22T09:56:51;4.93;;;2.95;;
42602;SDS011;28233;55.748;48.752;2023-06-22T09:58:54;4.70;;;3.60;;
42602;SDS011;28233;55.748;48.752;2023-06-22T10:01:07;5.60;;;3.20;;
42602;SDS011;28233;55.748;48.752;2023-06-22T10:03:09;5.32;;;3.13;;
42602;SDS011;28233;55.748;48.752;2023-06-22T10:05:13;4.68;;;3.53;;
42602;SDS011;28233;55.748;48.752;2023-06-22T10:07:16;4.35;;;2.92;;
42602;SDS011;28233;55.748;48.752;2023-06-22T10:09:19;4.97;;;3.47;;
42602;SDS011;28233;55.748;48.752;2023-06-22T10:11:23;6.47;;;3.70;;
42602;SDS011;28233;55.748;48.752;2023-06-22T10:13:31;6.30;;;4.18;;
42602;SDS011;28233;55.748;48.752;2023-06-22T10:15:34;6.70;;;3.95;;
42602;SDS011;28233;55.748;48.752;2023-06-22T10:17:37;4.65;;;2.97;;
42602;SDS011;28233;55.748;48.752;2023-06-22T10:19:40;4.45;;;3.53;;
42602;SDS011;28233;55.748;48.752;2023-06-22T10:21:44;5.32;;;3.42;;
42602;SDS011;28233;55.748;48.752;2023-06-22T10:23:46;5.63;;;3.63;;
42602;SDS011;28233;55.748;48.752;2023-06-22T10:25:49;6.07;;;3.67;;
42602;SDS011;28233;55.748;48.752;2023-06-22T10:27:52;4.88;;;3.83;;
42602;SDS011;28233;55.748;48.752;2023-06-22T10:29:55;5.68;;;3.47;;
42602;SDS011;28233;55.748;48.752;2023-06-22T10:31:57;6.65;;;4.22;;
42602;SDS011;28233;55.748;48.752;2023-06-22T10:34:00;7.50;;;3.90;;
42602;SDS011;28233;55.748;48.752;2023-06-22T10:36:03;5.00;;;3.53;;
42602;SDS011;28233;55.748;48.752;2023-06-22T10:38:07;4.68;;;3.00;;
42602;SDS011;28233;55.748;48.752;2023-06-22T10:40:13;5.50;;;3.28;;
42602;SDS011;28233;55.748;48.752;2023-06-22T10:42:17;5.65;;;3.78;;
42602;SDS011;28233;55.748;48.752;2023-06-22T10:44:20;4.57;;;3.28;;
42602;SDS011;28233;55.748;48.752;2023-06-22T10:46:26;4.57;;;3.47;;
42602;SDS011;28233;55.748;48.752;2023-06-22T10:48:30;5.00;;;2.83;;
42602;SDS011;28233;55.748;48.752;2023-06-22T10:50:33;3.80;;;3.00;;
42602;SDS011;28233;55.748;48.752;2023-06-22T10:52:35;5.93;;;2.85;;
42602;SDS011;28233;55.748;48.752;2023-06-22T10:54:38;4.85;;;3.92;;
42602;SDS011;28233;55.748;48.752;2023-06-22T10:56:41;7.05;;;3.45;;
42602;SDS011;28233;55.748;48.752;2023-06-22T10:58:44;5.43;;;3.58;;
42602;SDS011;28233;55.748;48.752;2023-06-22T11:00:47;6.53;;;3.83;;
42602;SDS011;28233;55.748;48.752;2023-06-22T11:02:50;5.70;;;3.35;;
42602;SDS011;28233;55.748;48.752;2023-06-22T11:04:53;4.15;;;3.60;;
42602;SDS011;28233;55.748;48.752;2023-06-22T11:06:56;6.22;;;3.75;;
42602;SDS011;28233;55.748;48.752;2023-06-22T11:08:59;6.07;;;3.42;;
42602;SDS011;28233;55.748;48.752;2023-06-22T11:11:05;5.32;;;3.42;;
42602;SDS011;28233;55.748;48.752;2023-06-22T11:13:07;5.75;;;3.28;;
42602;SDS011;28233;55.748;48.752;2023-06-22T11:15:14;3.80;;;2.75;;
42602;SDS011;28233;55.748;48.752;2023-06-22T11:17:17;4.93;;;3.22;;
42602;SDS011;28233;55.748;48.752;2023-06-22T11:19:20;4.63;;;3.05;;
42602;SDS011;28233;55.748;48.752;2023-06-22T11:21:23;3.78;;;2.75;;
42602;SDS011;28233;55.748;48.752;2023-06-22T11:23:26;4.40;;;3.70;;
42602;SDS011;28233;55.748;48.752;2023-06-22T11:25:30;5.68;;;4.10;;
42602;SDS011;28233;55.748;48.752;2023-06-22T11:27:32;5.53;;;3.70;;
42602;SDS011;28233;55.748;48.752;2023-06-22T11:29:35;6.28;;;3.63;;
42602;SDS011;28233;55.748;48.752;2023-06-22T11:31:39;6.78;;;4.63;;
42602;SDS011;28233;55.748;48.752;2023-06-22T11:33:45;4.85;;;3.50;;
42602;SDS011;28233;55.748;48.752;2023-06-22T11:35:49;7.13;;;3.58;;
42602;SDS011;28233;55.748;48.752;2023-06-22T11:37:52;5.07;;;3.88;;
42602;SDS011;28233;55.748;48.752;2023-06-22T11:39:55;5.63;;;4.35;;
42602;SDS011;28233;55.748;48.752;2023-06-22T11:42:08;8.75;;;4.78;;
42602;SDS011;28233;55.748;48.752;2023-06-22T11:44:11;7.13;;;4.55;;
42602;SDS011;28233;55.748;48.752;2023-06-22T11:46:14;5.50;;;3.85;;
42602;SDS011;28233;55.748;48.752;2023-06-22T11:48:17;4.53;;;3.40;;
42602;SDS011;28233;55.748;48.752;2023-06-22T11:50:20;5.43;;;4.10;;
42602;SDS011;28233;55.748;48.752;2023-06-22T11:52:23;7.13;;;4.03;;
42602;SDS011;28233;55.748;48.752;2023-06-22T11:54:25;5.18;;;3.78;;
42602;SDS011;28233;55.748;48.752;2023-06-22T11:56:28;5.10;;;3.88;;
42602;SDS011;28233;55.748;48.752;2023-06-22T11:58:31;6.32;;;3.92;;
42602;SDS011;28233;55.748;48.752;2023-06-22T12:00:34;6.18;;;4.00;;
42602;SDS011;28233;55.748;48.752;2023-06-22T12:02:52;6.35;;;4.72;;
42602;SDS011;28233;55.748;48.752;2023-06-22T12:04:55;6.75;;;4.93;;
42602;SDS011;28233;55.748;48.752;2023-06-22T12:07:00;5.00;;;4.07;;
42602;SDS011;28233;55.748;48.752;2023-06-22T12:09:03;10.05;;;4.35;;
42602;SDS011;28233;55.748;48.752;2023-06-22T12:11:07;7.15;;;3.75;;
42602;SDS011;28233;55.748;48.752;2023-06-22T12:13:10;4.70;;;3.55;;
42602;SDS011;28233;55.748;48.752;2023-06-22T12:15:12;4.15;;;3.17;;
42602;SDS011;28233;55.748;48.752;2023-06-22T12:17:15;3.70;;;2.67;;
42602;SDS011;28233;55.748;48.752;2023-06-22T12:19:18;5.75;;;3.30;;